Weather History for Shelby, NC

Change the Weather History Date:

Sunday, May 5, 2013

  Actual Average (KHKY) Record (KHKY)
Temperature  
Mean Temperature 54 °F -  
Max Temperature 58 °F 74 °F 91 °F (1952)
Min Temperature 49 °F 49 °F 37 °F (1976)
Degree Days  
Heating Degree Days 12    
Growing Degree Days 4 (Base 50)    
Moisture  
Dew Point 51 °F    
Average Humidity 96    
Maximum Humidity 98    
Minimum Humidity 94    
Precipitation  
Precipitation 4.65 in - - ()
Sea Level Pressure  
Sea Level Pressure 29.91 in    
Wind  
Wind Speed 12 mph (NE)    
Max Wind Speed 17 mph    
Max Gust Speed 26 mph    
Visibility 6 miles    
Events Rain    
Averages and records for this station are not official NWS values.
T = Trace of Precipitation, MM = Missing Value Source: NWS Daily Summary

Daily Weather History Graph

Daily Weather History Graph

Search for Another Location

Airport:

Trip Planner

Search our weather history database for the weather conditions in past years. The results will help you decide how hot, cold, wet, or windy it might be!

Date:

Astronomy

May. 05, 2013 Rise Set
Actual Time 6:30 AM EDT 8:15 PM EDT
Civil Twilight 6:03 AM EDT 8:43 PM EDT
Nautical Twilight 5:30 AM EDT 9:16 PM EDT
Astronomical Twilight 4:55 AM EDT 9:51 PM EDT
Moon 3:51 AM EDT (5/5) 4:22 PM EDT (5/5)
Length of Visible Light 14h 39m
Length of Day
13h 45m
Waning Crescent, 18% of the Moon is Illuminated
May 5
Waning Crescent
May 9
New
May 18
First Quarter
May 25
Full
May 31
Last Quarter

Hourly Weather History & Observations

Time (EDT) Temp. Dew Point Humidity Pressure Visibility Wind Dir Wind Speed Gust Speed Precip Events Conditions
12:15 AM 53.4 °F 51.8 °F 94% 30.04 in 7.0 mi NNE 9.2 mph - N/A Rain Light Rain
12:35 AM 53.2 °F 52.0 °F 95% 30.02 in 7.0 mi NE 12.7 mph - 0.03 in Rain Light Rain
12:55 AM 53.2 °F 52.2 °F 96% 30.02 in 7.0 mi ENE 12.7 mph 20.7 mph 0.06 in Rain Light Rain
1:15 AM 53.2 °F 52.2 °F 96% 29.99 in 7.0 mi NE 16.1 mph 23.0 mph 0.04 in Rain Rain
1:35 AM 53.1 °F 52.0 °F 96% 29.99 in 10.0 mi NE 13.8 mph 21.9 mph 0.06 in Rain Light Rain
1:55 AM 53.1 °F 52.0 °F 96% 29.99 in 10.0 mi ENE 11.5 mph - 0.10 in Rain Light Rain
2:15 AM 53.1 °F 51.8 °F 95% 29.98 in 10.0 mi NE 9.2 mph - N/A Rain Light Rain
2:35 AM 53.1 °F 51.8 °F 95% 29.98 in 7.0 mi NE 12.7 mph - 0.03 in Rain Light Rain
2:55 AM 52.9 °F 51.6 °F 95% 29.97 in 7.0 mi NE 10.4 mph 16.1 mph 0.07 in Rain Rain
3:15 AM 52.2 °F 50.9 °F 95% 29.94 in 5.0 mi NE 13.8 mph 18.4 mph 0.09 in Rain Light Rain
3:35 AM 52.2 °F 50.9 °F 95% 29.94 in 5.0 mi NE 16.1 mph 24.2 mph 0.15 in Rain Light Rain
3:55 AM 51.8 °F 50.5 °F 95% 29.92 in 5.0 mi NE 15.0 mph 24.2 mph 0.24 in Rain Rain
4:15 AM 51.3 °F 50.2 °F 96% 29.92 in 5.0 mi NE 17.3 mph 24.2 mph 0.09 in Rain Light Rain
4:35 AM 51.3 °F 50.2 °F 96% 29.92 in 7.0 mi ENE 16.1 mph 25.3 mph 0.13 in Rain Light Rain
4:55 AM 51.3 °F 50.0 °F 95% 29.94 in 10.0 mi NE 13.8 mph 24.2 mph 0.15 in Rain Light Rain
5:15 AM 51.3 °F 50.0 °F 95% 29.94 in 7.0 mi NE 12.7 mph 18.4 mph 0.04 in Rain Rain
5:35 AM 50.7 °F 49.3 °F 95% 29.94 in 5.0 mi NE 10.4 mph - 0.16 in Rain Light Rain
5:55 AM 50.4 °F 49.1 °F 95% 29.93 in 7.0 mi NNE 11.5 mph 17.3 mph 0.22 in Rain Rain
6:15 AM 50.0 °F 48.7 °F 95% 29.92 in 5.0 mi NE 15.0 mph 23.0 mph 0.06 in Rain Rain
6:55 AM 50.0 °F 48.7 °F 95% 29.92 in 7.0 mi NE 13.8 mph 20.7 mph 0.09 in   Light Drizzle
7:15 AM 49.8 °F 48.7 °F 96% 29.92 in 5.0 mi NE 13.8 mph 19.6 mph 0.02 in Rain Light Rain
7:35 AM 49.5 °F 48.2 °F 95% 29.92 in 7.0 mi NE 16.1 mph 26.5 mph 0.05 in Rain Light Rain
7:55 AM 49.5 °F 48.2 °F 95% 29.92 in 5.0 mi NE 12.7 mph 21.9 mph 0.09 in Rain Light Rain
8:15 AM 49.5 °F 48.2 °F 95% 29.93 in 5.0 mi NE 15.0 mph 20.7 mph 0.02 in Rain Light Rain
8:35 AM 49.5 °F 48.2 °F 95% 29.94 in 7.0 mi NE 12.7 mph 18.4 mph 0.03 in Rain Light Rain
8:55 AM 49.6 °F 48.2 °F 95% 29.94 in 5.0 mi NE 10.4 mph 16.1 mph 0.06 in Rain Rain
9:15 AM 49.5 °F 48.2 °F 95% 29.93 in 5.0 mi NE 13.8 mph 23.0 mph 0.03 in Rain Rain
9:35 AM 49.5 °F 48.2 °F 95% 29.94 in 3.0 mi ENE 15.0 mph 20.7 mph 0.11 in Rain Light Rain
9:55 AM 49.5 °F 48.2 °F 95% 29.94 in 4.0 mi NE 13.8 mph 20.7 mph 0.12 in Rain Light Rain
10:15 AM 49.5 °F 48.2 °F 95% 29.93 in 4.0 mi NE 15.0 mph 21.9 mph 0.06 in Rain Rain
10:35 AM 49.5 °F 48.4 °F 96% 29.94 in 4.0 mi NE 13.8 mph 19.6 mph 0.12 in Rain Light Rain
10:55 AM 49.5 °F 48.4 °F 96% 29.94 in 5.0 mi NE 13.8 mph 19.6 mph 0.18 in Rain Light Rain
11:15 AM 49.5 °F 48.6 °F 97% 29.94 in 5.0 mi NE 9.2 mph 21.9 mph 0.05 in Rain Light Rain
11:35 AM 49.5 °F 48.6 °F 97% 29.95 in 4.0 mi NE 12.7 mph 17.3 mph 0.14 in Rain Rain
11:55 AM 49.5 °F 48.6 °F 97% 29.95 in 5.0 mi ENE 9.2 mph 18.4 mph 0.23 in Rain Light Rain
12:15 PM 50.0 °F 48.7 °F 95% 29.94 in 4.0 mi NE 9.2 mph 17.3 mph 0.07 in Rain Rain
12:35 PM 49.6 °F 48.6 °F 96% 29.96 in 3.0 mi NE 9.2 mph - 0.18 in Rain Heavy Rain
12:55 PM 49.5 °F 48.6 °F 97% 29.96 in 4.0 mi NE 10.4 mph - 0.30 in Rain Rain
1:15 PM 49.5 °F 48.7 °F 97% 29.95 in 3.0 mi NE 11.5 mph 17.3 mph 0.12 in Rain Rain
1:35 PM 49.5 °F 48.6 °F 97% 29.93 in 4.0 mi NE 15.0 mph 20.7 mph 0.27 in Rain Rain
1:55 PM 49.5 °F 48.6 °F 97% 29.94 in 4.0 mi NE 10.4 mph 17.3 mph 0.39 in Rain Rain
2:15 PM 49.5 °F 48.7 °F 97% 29.92 in 4.0 mi NE 16.1 mph 20.7 mph 0.11 in Rain Rain
2:35 PM 49.1 °F 48.4 °F 97% 29.90 in 4.0 mi NE 16.1 mph 23.0 mph 0.24 in Rain Rain
2:55 PM 49.3 °F 48.6 °F 97% 29.89 in 3.0 mi NNE 12.7 mph 24.2 mph 0.47 in Rain Light Rain
3:15 PM 49.5 °F 48.7 °F 97% 29.89 in 7.0 mi NNE 12.7 mph 18.4 mph 0.01 in   Drizzle
3:35 PM 49.5 °F 48.7 °F 97% 29.89 in 4.0 mi ENE 10.4 mph 18.4 mph 0.07 in Rain Rain
4:15 PM 50.2 °F 49.3 °F 97% 29.89 in 4.0 mi NE 9.2 mph 16.1 mph 0.04 in Rain Light Rain
4:35 PM 51.3 °F 50.5 °F 97% 29.89 in 4.0 mi NNE 10.4 mph - 0.10 in Rain Heavy Rain
4:55 PM 51.3 °F 50.5 °F 97% 29.89 in 5.0 mi NNE 8.1 mph - 0.15 in Rain Rain
5:15 PM 51.4 °F 50.9 °F 98% 29.88 in 2.5 mi NE 8.1 mph - 0.12 in Rain Rain
5:35 PM 51.8 °F 51.1 °F 97% 29.87 in 5.0 mi NNE 9.2 mph - 0.16 in Rain Rain
6:15 PM 52.3 °F 51.8 °F 98% 29.87 in 7.0 mi NE 8.1 mph - N/A   Light Drizzle
6:35 PM 53.1 °F 52.3 °F 97% 29.85 in 10.0 mi NE 11.5 mph - N/A   Overcast
6:55 PM 53.2 °F 52.7 °F 98% 29.84 in 7.0 mi NE 10.4 mph 17.3 mph 0.01 in Rain Light Rain
7:15 PM 53.6 °F 52.9 °F 97% 29.84 in 7.0 mi ENE 11.5 mph - 0.02 in Rain Light Rain
7:35 PM 54.7 °F 54.0 °F 97% 29.83 in 5.0 mi ENE 13.8 mph 19.6 mph 0.02 in Rain Light Rain
7:55 PM 54.9 °F 54.0 °F 97% 29.84 in 7.0 mi East 9.2 mph - 0.09 in Rain Light Rain
8:15 PM 55.4 °F 54.5 °F 97% 29.84 in 7.0 mi ENE 11.5 mph 18.4 mph 0.02 in   Drizzle
8:35 PM 55.9 °F 55.0 °F 97% 29.83 in 10.0 mi ENE 13.8 mph 19.6 mph 0.02 in Rain Light Rain
8:55 PM 56.5 °F 55.6 °F 97% 29.83 in 7.0 mi East 12.7 mph 19.6 mph 0.06 in Rain Light Rain
9:15 PM 56.8 °F 55.8 °F 96% 29.83 in 7.0 mi ENE 8.1 mph 17.3 mph N/A Rain Light Rain
9:35 PM 57.2 °F 55.9 °F 96% 29.83 in 7.0 mi East 8.1 mph 16.1 mph 0.02 in Rain Light Rain
9:55 PM 57.4 °F 56.3 °F 96% 29.84 in 4.0 mi ESE 9.2 mph 18.4 mph 0.12 in Rain Rain
10:15 PM 57.7 °F 56.7 °F 96% 29.84 in 2.0 mi ESE 4.6 mph 17.3 mph 0.44 in Rain Heavy Rain
10:35 PM 58.1 °F 56.8 °F 96% 29.83 in 7.0 mi East 16.1 mph 20.7 mph 0.50 in Rain Light Rain
10:55 PM 58.3 °F 56.8 °F 95% 29.84 in 5.0 mi East 15.0 mph 19.6 mph 0.56 in Rain Rain
11:15 PM 58.5 °F 57.2 °F 96% 29.85 in 3.0 mi SE 8.1 mph - 0.19 in Rain Heavy Rain
11:35 PM 58.1 °F 57.2 °F 97% 29.86 in 4.0 mi SSE 5.8 mph - 0.39 in Rain Heavy Rain
11:55 PM 56.3 °F 55.4 °F 97% 29.85 in 3.0 mi South 6.9 mph - 0.66 in Rain Heavy Rain